createdAt,value
2019-02-11T00:01:41.685Z,5.79
2019-02-11T00:04:12.366Z,5.73
2019-02-11T00:06:43.007Z,5.70
2019-02-11T00:09:13.921Z,5.69
2019-02-11T00:11:44.393Z,5.69
2019-02-11T00:14:14.970Z,5.71
2019-02-11T00:16:45.551Z,5.70
2019-02-11T00:19:16.144Z,5.75
2019-02-11T00:21:46.693Z,5.74
2019-02-11T00:24:17.169Z,5.84
2019-02-11T00:26:47.698Z,5.83
2019-02-11T00:29:18.202Z,5.90
2019-02-11T00:31:48.775Z,6.05
2019-02-11T00:34:19.370Z,6.17
2019-02-11T00:36:49.750Z,6.16
2019-02-11T00:39:20.254Z,6.13
2019-02-11T00:41:50.769Z,6.10
2019-02-11T00:44:21.290Z,6.10
2019-02-11T00:46:52.060Z,6.13
2019-02-11T00:49:23.370Z,6.07
2019-02-11T00:51:53.981Z,6.05
2019-02-11T00:54:24.561Z,6.01
2019-02-11T00:56:55.020Z,5.98
2019-02-11T00:59:25.670Z,5.97
2019-02-11T01:01:56.180Z,5.96
2019-02-11T01:04:26.600Z,5.98
2019-02-11T01:06:57.186Z,6.05
2019-02-11T01:09:27.711Z,5.98
2019-02-11T01:11:58.280Z,5.96
2019-02-11T01:14:28.780Z,5.94
2019-02-11T01:16:59.176Z,5.94
2019-02-11T01:19:29.849Z,5.89
2019-02-11T01:22:00.526Z,5.87
2019-02-11T01:24:31.091Z,5.83
2019-02-11T01:27:01.637Z,5.76
2019-02-11T01:29:32.065Z,5.59
2019-02-11T01:32:02.642Z,5.57
2019-02-11T01:34:34.760Z,5.56
2019-02-11T01:37:05.190Z,5.59
2019-02-11T01:39:35.679Z,5.59
2019-02-11T01:42:06.228Z,5.53
2019-02-11T01:44:36.639Z,5.60
2019-02-11T01:47:08.922Z,5.63
2019-02-11T01:49:39.357Z,5.59
2019-02-11T01:52:09.839Z,5.55
2019-02-11T01:54:40.296Z,5.53
2019-02-11T01:57:10.799Z,5.56
2019-02-11T01:59:41.199Z,5.55
2019-02-11T02:02:11.700Z,5.55
2019-02-11T02:04:42.919Z,5.56
2019-02-11T02:07:13.518Z,5.53
2019-02-11T02:09:44.034Z,5.49
2019-02-11T02:12:14.531Z,5.42
2019-02-11T02:14:45.472Z,5.43
2019-02-11T02:17:15.955Z,5.39
2019-02-11T02:19:46.562Z,5.34
2019-02-11T02:22:17.875Z,5.27
2019-02-11T02:24:48.470Z,5.17
2019-02-11T02:27:19.073Z,5.13
2019-02-11T02:29:49.531Z,5.12
2019-02-11T02:32:20.103Z,5.13
2019-02-11T02:34:50.630Z,5.12
2019-02-11T02:37:21.868Z,5.10
2019-02-11T02:39:52.320Z,5.08
2019-02-11T02:42:23.109Z,5.06
2019-02-11T02:44:53.586Z,5.07
2019-02-11T02:47:24.101Z,4.98
2019-02-11T02:49:54.609Z,4.94
2019-02-11T02:52:25.146Z,4.88
2019-02-11T02:54:55.972Z,4.85
2019-02-11T02:57:26.435Z,4.83
2019-02-11T02:59:56.965Z,4.86
2019-02-11T03:02:27.488Z,4.89
2019-02-11T03:04:57.921Z,4.95
2019-02-11T03:07:28.509Z,4.98
2019-02-11T03:09:58.836Z,5.08
2019-02-11T03:12:29.404Z,5.04
2019-02-11T03:15:00.009Z,5.07
2019-02-11T03:17:30.583Z,5.09
2019-02-11T03:20:01.080Z,5.11
2019-02-11T03:22:31.494Z,5.08
2019-02-11T03:25:02.020Z,5.02
2019-02-11T03:27:32.601Z,5.02
2019-02-11T03:30:03.620Z,5.05
2019-02-11T03:32:34.097Z,5.05
2019-02-11T03:35:04.904Z,5.03
2019-02-11T03:37:35.555Z,4.99
2019-02-11T03:40:06.803Z,5.00
2019-02-11T03:42:37.405Z,5.08
2019-02-11T03:45:09.539Z,5.06
2019-02-11T03:47:40.065Z,5.11
2019-02-11T03:50:11.072Z,5.14
2019-02-11T03:52:41.573Z,5.12
2019-02-11T03:55:12.116Z,5.15
2019-02-11T03:57:42.685Z,5.11
2019-02-11T04:00:13.383Z,5.15
2019-02-11T04:02:44.038Z,5.13
2019-02-11T04:05:14.661Z,5.17
2019-02-11T04:07:45.545Z,5.11
2019-02-11T04:10:15.955Z,5.14
2019-02-11T04:12:46.471Z,5.14
2019-02-11T04:15:16.875Z,5.13
2019-02-11T04:17:47.412Z,5.18
2019-02-11T04:20:17.991Z,5.17
2019-02-11T04:22:48.567Z,5.19
2019-02-11T04:25:19.015Z,5.13
2019-02-11T04:27:49.515Z,5.15
2019-02-11T04:30:20.149Z,5.12
2019-02-11T04:32:50.736Z,5.09
2019-02-11T04:35:21.260Z,5.05
2019-02-11T04:37:51.961Z,5.09
2019-02-11T04:40:22.734Z,5.14
2019-02-11T04:42:53.138Z,5.10
2019-02-11T04:45:24.156Z,5.13
2019-02-11T04:47:54.759Z,5.18
2019-02-11T04:50:25.292Z,5.27
2019-02-11T04:52:55.760Z,5.25
2019-02-11T04:55:26.161Z,5.30
2019-02-11T04:57:56.614Z,5.35
2019-02-11T05:00:27.156Z,5.31
2019-02-11T05:02:57.859Z,5.37
2019-02-11T05:05:28.425Z,5.32
2019-02-11T05:07:58.931Z,5.45
2019-02-11T05:10:29.491Z,5.46
2019-02-11T05:13:00.003Z,5.29
2019-02-11T05:15:30.520Z,5.18
2019-02-11T05:18:01.013Z,5.10
2019-02-11T05:20:31.500Z,5.01
2019-02-11T05:23:01.984Z,5.02
2019-02-11T05:25:32.419Z,5.03
2019-02-11T05:28:02.819Z,5.02
2019-02-11T05:30:33.397Z,4.99
2019-02-11T05:33:03.884Z,4.94
2019-02-11T05:35:34.691Z,4.91
2019-02-11T05:38:05.225Z,4.87
2019-02-11T05:40:35.850Z,4.86
2019-02-11T05:43:06.384Z,4.90
2019-02-11T05:45:36.908Z,4.94
2019-02-11T05:48:07.579Z,5.00
2019-02-11T05:50:41.370Z,5.02
2019-02-11T05:53:11.855Z,4.96
2019-02-11T05:55:42.358Z,5.03
2019-02-11T05:58:12.953Z,5.07
2019-02-11T06:00:43.543Z,5.05
2019-02-11T06:03:14.263Z,5.01
2019-02-11T06:05:44.808Z,4.91
2019-02-11T06:08:15.391Z,4.90
2019-02-11T06:10:45.997Z,4.80
2019-02-11T06:13:16.501Z,4.76
2019-02-11T06:15:47.202Z,4.74
2019-02-11T06:18:18.259Z,4.68
2019-02-11T06:20:48.844Z,4.64
2019-02-11T06:23:19.463Z,4.61
2019-02-11T06:25:50.180Z,4.49
2019-02-11T06:28:20.641Z,4.25
2019-02-11T06:30:51.420Z,3.92
2019-02-11T06:33:21.847Z,3.71
2019-02-11T06:35:52.360Z,3.58
2019-02-11T06:38:22.884Z,3.44
2019-02-11T06:40:53.704Z,3.41
2019-02-11T06:43:24.235Z,3.30
2019-02-11T06:45:54.871Z,3.31
2019-02-11T06:48:25.468Z,3.20
2019-02-11T06:50:56.165Z,3.14
2019-02-11T06:53:26.720Z,3.03
2019-02-11T06:55:57.146Z,2.98
2019-02-11T06:58:27.812Z,2.98
2019-02-11T07:00:58.412Z,2.99
2019-02-11T07:03:29.963Z,2.98
2019-02-11T07:06:00.550Z,2.98
2019-02-11T07:08:31.099Z,2.96
2019-02-11T07:11:01.671Z,2.90
2019-02-11T07:13:32.188Z,2.84
2019-02-11T07:16:02.951Z,2.75
2019-02-11T07:18:33.505Z,2.75
2019-02-11T07:21:04.161Z,2.76
2019-02-11T07:23:34.802Z,2.71
2019-02-11T07:26:06.320Z,2.67
2019-02-11T07:28:36.783Z,2.67
2019-02-11T07:31:07.284Z,2.65
2019-02-11T07:33:37.960Z,2.61
2019-02-11T07:36:08.562Z,2.59
2019-02-11T07:38:39.013Z,2.53
2019-02-11T07:41:09.621Z,2.48
2019-02-11T07:43:59.001Z,2.49
2019-02-11T07:46:33.995Z,2.44
2019-02-11T07:49:04.650Z,2.40
2019-02-11T07:51:42.180Z,2.28
2019-02-11T07:54:07.385Z,2.25
2019-02-11T07:56:37.959Z,2.24
2019-02-11T07:59:08.472Z,2.21
2019-02-11T08:01:39.070Z,2.09
2019-02-11T08:04:09.657Z,2.09
2019-02-11T08:06:40.405Z,2.05
2019-02-11T08:09:12.331Z,2.07
2019-02-11T08:11:43.120Z,2.09
2019-02-11T08:14:13.986Z,2.05
2019-02-11T08:16:44.492Z,2.09
2019-02-11T08:19:14.961Z,2.03
2019-02-11T08:21:45.602Z,2.02
2019-02-11T08:24:16.195Z,2.08
2019-02-11T08:26:46.905Z,2.05
2019-02-11T08:29:17.486Z,2.05
2019-02-11T08:31:48.241Z,1.99
2019-02-11T08:34:18.792Z,1.93
2019-02-11T08:36:49.411Z,1.99
2019-02-11T08:39:20.159Z,2.04
2019-02-11T08:41:50.681Z,2.04
2019-02-11T08:44:21.355Z,2.11
2019-02-11T08:46:51.959Z,2.07
2019-02-11T08:49:22.602Z,2.02
2019-02-11T08:51:53.343Z,1.88
2019-02-11T08:54:23.925Z,1.75
2019-02-11T08:56:54.560Z,1.77
2019-02-11T08:59:25.143Z,1.95
2019-02-11T09:01:55.825Z,2.04
2019-02-11T09:04:26.515Z,2.09
2019-02-11T09:06:57.174Z,2.17
2019-02-11T09:09:27.660Z,2.26
2019-02-11T09:11:58.155Z,2.30
2019-02-11T09:14:28.780Z,2.54
2019-02-11T09:16:59.392Z,2.58
2019-02-11T09:19:29.965Z,2.52
2019-02-11T09:22:07.364Z,2.47
2019-02-11T09:24:34.897Z,2.48
2019-02-11T09:27:05.774Z,2.45
2019-02-11T09:29:36.326Z,2.37
2019-02-11T09:32:06.916Z,2.41
2019-02-11T09:34:37.550Z,2.43
2019-02-11T09:37:08.173Z,2.53
2019-02-11T09:39:38.713Z,2.52
2019-02-11T09:42:09.415Z,2.62
2019-02-11T09:44:40.621Z,2.74
2019-02-11T09:47:11.191Z,2.85
2019-02-11T09:49:41.920Z,2.95
2019-02-11T09:52:12.553Z,2.95
2019-02-11T09:54:43.071Z,3.08
2019-02-11T09:57:13.712Z,3.17
2019-02-11T09:59:44.165Z,3.16
2019-02-11T10:02:14.789Z,3.23
2019-02-11T10:04:45.431Z,3.29
2019-02-11T10:07:15.977Z,3.34
2019-02-11T10:09:47.914Z,3.43
2019-02-11T10:12:21.411Z,3.58
2019-02-11T10:14:50.897Z,3.58
2019-02-11T10:17:29.519Z,3.82
2019-02-11T10:19:53.720Z,3.98
2019-02-11T10:22:24.242Z,4.09
2019-02-11T10:24:54.920Z,4.18
2019-02-11T10:27:26.683Z,4.23
2019-02-11T10:29:57.189Z,4.20
2019-02-11T10:32:27.850Z,3.94
2019-02-11T10:34:58.453Z,4.03
2019-02-11T10:37:29.031Z,3.95
2019-02-11T10:39:59.618Z,4.02
2019-02-11T10:42:30.126Z,4.11
2019-02-11T10:45:00.588Z,4.25
2019-02-11T10:47:31.148Z,4.38
2019-02-11T10:50:01.660Z,4.48
2019-02-11T10:52:32.184Z,4.89
2019-02-11T10:55:02.871Z,5.12
2019-02-11T10:57:33.386Z,5.17
2019-02-11T11:00:04.182Z,5.08
2019-02-11T11:02:34.980Z,5.11
2019-02-11T11:05:06.695Z,4.77
2019-02-11T11:07:37.322Z,4.91
2019-02-11T11:10:12.628Z,4.59
2019-02-11T11:12:43.595Z,4.61
2019-02-11T11:15:14.242Z,4.44
2019-02-11T11:17:44.803Z,4.17
2019-02-11T11:20:17.410Z,4.25
2019-02-11T11:22:47.955Z,4.30
2019-02-11T11:25:19.316Z,4.36
2019-02-11T11:27:49.731Z,4.42
2019-02-11T11:30:20.547Z,4.40
2019-02-11T11:32:51.176Z,4.48
2019-02-11T11:35:21.818Z,4.58
2019-02-11T11:37:52.716Z,4.59
2019-02-11T11:40:23.459Z,4.70
2019-02-11T11:42:54.034Z,4.88
2019-02-11T11:45:24.617Z,4.97
2019-02-11T11:47:55.168Z,4.97
2019-02-11T11:50:25.854Z,5.01
2019-02-11T11:52:56.518Z,5.04
2019-02-11T11:55:27.834Z,5.86
2019-02-11T11:57:58.806Z,6.31
2019-02-11T12:00:30.222Z,5.89
2019-02-11T12:03:04.294Z,5.70
2019-02-11T12:05:33.256Z,5.44
2019-02-11T12:08:03.950Z,5.37
2019-02-11T12:10:34.944Z,5.62
2019-02-11T12:13:21.771Z,5.68
2019-02-11T12:15:37.786Z,5.70
2019-02-11T12:18:08.453Z,5.78
2019-02-11T12:20:39.114Z,5.45
2019-02-11T12:23:09.721Z,5.27
2019-02-11T12:25:40.473Z,5.02
2019-02-11T12:28:11.015Z,4.81
2019-02-11T12:30:42.096Z,4.76
2019-02-11T12:33:12.944Z,4.69
2019-02-11T12:35:43.571Z,4.93
2019-02-11T12:38:14.244Z,4.84
2019-02-11T12:40:44.882Z,4.96
2019-02-11T12:43:15.646Z,5.04
2019-02-11T12:45:46.258Z,5.03
2019-02-11T12:48:16.771Z,5.06
2019-02-11T12:50:47.343Z,4.93
2019-02-11T12:53:17.931Z,4.89
2019-02-11T12:55:48.653Z,4.90
2019-02-11T12:58:19.260Z,4.83
2019-02-11T13:00:50.036Z,4.94
2019-02-11T13:03:20.665Z,4.88
2019-02-11T13:05:52.742Z,4.78
2019-02-11T13:08:23.419Z,4.68
2019-02-11T13:10:54.111Z,4.66
2019-02-11T13:13:24.907Z,4.54
2019-02-11T13:16:01.483Z,4.49
2019-02-11T13:18:28.358Z,4.46
2019-02-11T13:20:59.073Z,4.12
2019-02-11T13:23:29.595Z,3.87
2019-02-11T13:26:00.253Z,3.94
2019-02-11T13:28:31.273Z,3.95
2019-02-11T13:31:01.936Z,3.93
2019-02-11T13:33:32.478Z,4.08
2019-02-11T13:36:03.070Z,4.36
2019-02-11T13:38:33.589Z,4.65
2019-02-11T13:41:04.205Z,4.89
2019-02-11T13:43:34.873Z,5.09
2019-02-11T13:46:05.626Z,5.29
2019-02-11T13:48:36.167Z,5.23
2019-02-11T13:51:06.811Z,5.45
2019-02-11T13:53:37.414Z,5.53
2019-02-11T13:56:08.417Z,5.48
2019-02-11T13:58:39.049Z,5.22
2019-02-11T14:01:11.852Z,4.82
2019-02-11T14:03:42.384Z,4.82
2019-02-11T14:06:13.171Z,4.70
2019-02-11T14:08:43.841Z,4.60
2019-02-11T14:11:15.340Z,4.59
2019-02-11T14:14:01.388Z,4.47
2019-02-11T14:16:18.328Z,4.54
2019-02-11T14:18:48.945Z,4.56
2019-02-11T14:21:19.633Z,4.38
2019-02-11T14:23:50.286Z,4.42
2019-02-11T14:26:21.396Z,4.43
2019-02-11T14:28:52.592Z,4.46
2019-02-11T14:31:23.566Z,4.39
2019-02-11T14:33:54.157Z,4.29
2019-02-11T14:36:24.895Z,4.36
2019-02-11T14:38:55.527Z,4.46
2019-02-11T14:41:26.134Z,4.46
2019-02-11T14:43:56.557Z,4.44
2019-02-11T14:46:27.219Z,4.44
2019-02-11T14:48:57.916Z,4.46
2019-02-11T14:51:28.426Z,4.48
2019-02-11T14:53:59.065Z,4.51
2019-02-11T14:56:29.594Z,4.54
2019-02-11T14:59:00.185Z,4.50
2019-02-11T15:01:30.723Z,4.49
2019-02-11T15:04:01.311Z,4.49
2019-02-11T15:06:31.859Z,4.48
2019-02-11T15:09:02.582Z,4.53
2019-02-11T15:11:33.080Z,4.52
2019-02-11T15:14:03.651Z,4.52
2019-02-11T15:16:34.353Z,4.53
2019-02-11T15:19:04.862Z,4.55
2019-02-11T15:21:35.440Z,4.52
2019-02-11T15:24:06.076Z,4.53
2019-02-11T15:26:36.873Z,4.53
2019-02-11T15:29:07.532Z,4.53
2019-02-11T15:31:38.297Z,4.52
2019-02-11T15:34:08.979Z,4.52
2019-02-11T15:36:39.619Z,4.53
2019-02-11T15:39:10.675Z,4.52
2019-02-11T15:41:41.536Z,4.48
2019-02-11T15:44:12.297Z,4.35
2019-02-11T15:46:44.223Z,4.32
2019-02-11T15:49:14.851Z,4.34
2019-02-11T15:51:45.572Z,4.28
2019-02-11T15:54:16.191Z,4.25
2019-02-11T15:56:46.979Z,4.21
2019-02-11T15:59:18.032Z,4.21
2019-02-11T16:01:48.723Z,4.21
2019-02-11T16:04:19.591Z,4.18
2019-02-11T16:06:50.375Z,4.12
2019-02-11T16:09:21.025Z,4.10
2019-02-11T16:11:52.600Z,4.15
2019-02-11T16:14:23.430Z,4.14
2019-02-11T16:16:57.175Z,4.08
2019-02-11T16:19:27.970Z,4.13
2019-02-11T16:21:58.523Z,4.08
2019-02-11T16:24:29.355Z,4.09
2019-02-11T16:27:00.164Z,4.10
2019-02-11T16:29:31.157Z,4.11
2019-02-11T16:32:01.964Z,4.15
2019-02-11T16:34:32.561Z,4.14
2019-02-11T16:37:03.116Z,4.08
2019-02-11T16:39:33.950Z,4.07
2019-02-11T16:42:04.599Z,4.03
2019-02-11T16:44:35.290Z,4.11
2019-02-11T16:47:06.155Z,4.03
2019-02-11T16:49:36.936Z,4.03
2019-02-11T16:52:13.680Z,4.02
2019-02-11T16:54:48.649Z,4.04
2019-02-11T16:57:19.870Z,3.99
2019-02-11T16:59:53.047Z,3.97
2019-02-11T17:02:23.936Z,3.94
2019-02-11T17:04:54.695Z,3.95
2019-02-11T17:07:25.401Z,3.84
2019-02-11T17:09:56.131Z,3.76
2019-02-11T17:12:26.920Z,3.73
2019-02-11T17:14:58.744Z,3.75
2019-02-11T17:17:30.535Z,3.80
2019-02-11T17:20:04.311Z,3.83
2019-02-11T17:22:37.162Z,3.72
2019-02-11T17:25:09.028Z,3.64
2019-02-11T17:27:39.758Z,3.66
2019-02-11T17:30:16.570Z,3.35
2019-02-11T17:32:53.380Z,3.20
2019-02-11T17:35:24.610Z,3.04
2019-02-11T17:37:55.640Z,3.01
2019-02-11T17:40:38.419Z,2.97
2019-02-11T17:43:10.655Z,3.00
2019-02-11T17:45:44.607Z,3.01
2019-02-11T17:48:17.015Z,2.94
2019-02-11T17:50:48.816Z,2.81
2019-02-11T17:53:20.109Z,2.72
2019-02-11T17:55:57.692Z,2.73
2019-02-11T17:58:28.955Z,2.69
2019-02-11T18:01:04.558Z,2.67
2019-02-11T18:03:38.420Z,2.66
2019-02-11T18:06:13.571Z,2.64
2019-02-11T18:08:45.819Z,2.58
2019-02-11T18:11:19.963Z,2.65
2019-02-11T18:13:51.817Z,2.72
2019-02-11T18:16:24.543Z,2.80
2019-02-11T18:18:56.838Z,2.97
2019-02-11T18:21:27.905Z,2.93
2019-02-11T18:24:01.016Z,2.98
2019-02-11T18:26:34.979Z,2.99
2019-02-11T18:29:12.677Z,2.98
2019-02-11T18:31:43.875Z,3.00
2019-02-11T18:34:16.391Z,3.01
2019-02-11T18:36:51.765Z,3.05
2019-02-11T18:39:22.440Z,3.07
2019-02-11T18:41:59.311Z,3.11
2019-02-11T18:44:33.994Z,3.13
2019-02-11T18:47:07.028Z,3.15
2019-02-11T18:49:41.185Z,3.13
2019-02-11T18:52:13.091Z,3.14
2019-02-11T18:54:43.852Z,3.09
2019-02-11T18:57:18.916Z,3.06
2019-02-11T18:59:49.893Z,3.09
2019-02-11T19:02:26.611Z,3.08
2019-02-11T19:05:03.325Z,3.09
2019-02-11T19:07:37.153Z,3.11
2019-02-11T19:10:17.290Z,3.08
2019-02-11T19:12:53.276Z,3.12
2019-02-11T19:15:24.017Z,3.15
2019-02-11T19:18:06.295Z,3.14
2019-02-11T19:20:41.719Z,3.17
2019-02-11T19:23:19.315Z,3.23
2019-02-11T19:25:57.176Z,3.23
2019-02-11T19:28:29.735Z,3.21
2019-02-11T19:31:03.154Z,3.26
2019-02-11T19:33:33.874Z,3.31
2019-02-11T19:36:10.275Z,3.27
2019-02-11T19:38:42.660Z,3.20
2019-02-11T19:41:17.626Z,3.16
2019-02-11T19:43:48.821Z,3.02
2019-02-11T19:46:22.158Z,2.98
2019-02-11T19:48:53.372Z,2.92
2019-02-11T19:51:31.485Z,2.86
2019-02-11T19:54:04.377Z,2.84
2019-02-11T19:56:38.916Z,2.83
2019-02-11T19:59:16.576Z,2.76
2019-02-11T20:01:48.425Z,2.82
2019-02-11T20:04:28.697Z,2.81
2019-02-11T20:07:02.600Z,2.79
2019-02-11T20:09:37.986Z,2.77
2019-02-11T20:12:11.736Z,2.77
2019-02-11T20:14:44.947Z,2.81
2019-02-11T20:17:27.221Z,2.83
2019-02-11T20:20:00.601Z,2.86
2019-02-11T20:22:36.691Z,2.83
2019-02-11T20:25:14.321Z,2.74
2019-02-11T20:27:46.127Z,2.62
2019-02-11T20:30:24.169Z,2.52
2019-02-11T20:33:01.087Z,2.46
2019-02-11T20:35:32.967Z,2.52
2019-02-11T20:38:04.650Z,2.47
2019-02-11T20:40:37.180Z,2.45
2019-02-11T20:43:09.061Z,2.46
2019-02-11T20:45:43.125Z,2.45
2019-02-11T20:48:17.419Z,2.52
2019-02-11T20:50:49.233Z,2.58
2019-02-11T20:53:23.389Z,2.56
2019-02-11T20:55:54.228Z,2.62
2019-02-11T20:58:33.671Z,2.57
2019-02-11T21:01:13.420Z,2.62
2019-02-11T21:03:45.181Z,2.65
2019-02-11T21:06:19.121Z,2.64
2019-02-11T21:08:52.229Z,2.75
2019-02-11T21:11:26.284Z,2.73
2019-02-11T21:14:14.576Z,2.73
2019-02-11T21:16:48.671Z,2.74
2019-02-11T21:19:23.585Z,2.73
2019-02-11T21:22:00.570Z,2.71
2019-02-11T21:24:33.542Z,2.66
2019-02-11T21:27:07.903Z,2.67
2019-02-11T21:29:42.822Z,2.62
2019-02-11T21:32:13.657Z,2.65
2019-02-11T21:34:44.446Z,2.64
2019-02-11T21:37:15.180Z,2.58
2019-02-11T21:39:46.696Z,2.59
2019-02-11T21:42:17.251Z,2.57
2019-02-11T21:44:47.926Z,2.61
2019-02-11T21:47:18.476Z,2.60
2019-02-11T21:49:49.102Z,2.58
2019-02-11T21:52:19.570Z,2.55
2019-02-11T21:54:50.255Z,2.60
2019-02-11T21:57:20.906Z,2.65
2019-02-11T21:59:51.561Z,2.64
2019-02-11T22:02:22.256Z,2.69
2019-02-11T22:04:53.400Z,2.69
2019-02-11T22:07:28.551Z,2.70
2019-02-11T22:09:59.304Z,2.66
2019-02-11T22:12:29.965Z,2.67
2019-02-11T22:15:00.622Z,2.67
2019-02-11T22:17:31.589Z,2.67
2019-02-11T22:20:02.309Z,2.66
2019-02-11T22:22:32.909Z,2.63
2019-02-11T22:25:03.555Z,2.65
2019-02-11T22:27:34.289Z,2.64
2019-02-11T22:30:10.137Z,2.64
2019-02-11T22:32:48.988Z,2.59
2019-02-11T22:35:28.420Z,2.54
2019-02-11T22:38:08.841Z,2.57
2019-02-11T22:40:49.414Z,2.50
2019-02-11T22:43:30.461Z,2.48
2019-02-11T22:46:13.261Z,2.52
2019-02-11T22:48:53.242Z,2.48
2019-02-11T22:51:25.213Z,2.43
2019-02-11T22:54:03.903Z,2.37
2019-02-11T22:56:34.962Z,2.31
2019-02-11T22:59:06.012Z,2.19
2019-02-11T23:01:37.241Z,2.08
2019-02-11T23:04:08.094Z,2.01
2019-02-11T23:06:39.050Z,1.86
2019-02-11T23:09:13.118Z,1.85
2019-02-11T23:11:44.102Z,1.88
2019-02-11T23:14:15.070Z,1.78
2019-02-11T23:16:46.100Z,1.79
2019-02-11T23:19:17.014Z,1.68
2019-02-11T23:21:47.879Z,1.72
2019-02-11T23:24:18.778Z,1.64
2019-02-11T23:26:49.660Z,1.65
2019-02-11T23:29:20.722Z,1.60
2019-02-11T23:31:51.338Z,1.57
2019-02-11T23:34:21.970Z,1.48
2019-02-11T23:36:52.613Z,1.41
2019-02-11T23:39:23.130Z,1.33
2019-02-11T23:41:53.849Z,1.30
2019-02-11T23:44:25.275Z,1.30
2019-02-11T23:46:56.070Z,1.23
2019-02-11T23:49:26.641Z,1.19
2019-02-11T23:51:57.182Z,1.20
2019-02-11T23:54:27.761Z,1.15
2019-02-11T23:56:58.275Z,1.05
2019-02-11T23:59:29.152Z,1.00
